PORT of HALIFAX

Country: Canada Country: Canada [CA]
Latitude / Longitude: 44.66815° / -63.5961° Show on Map
Local Time:  [UTC -3]
UN/LOCODE: CAHAL
Vessels in Port: 27
Expected Arrivals: 7

Recent Arrivals & Departures


Vessel's Name
Arrival (UTC)
Arrival (LT)
Departure (UTC)
Departure (LT)
Vessel Type: Yachts & Others  TIMELINE 2014-08-27 19:58:00 2014-08-27 16:58:00 2014-08-27 23:54:00 2014-08-27 20:54:00
Vessel Type: Yachts & Others  PHILHARMONIC 2014-08-27 23:26:00 2014-08-27 20:26:00
Vessel Type: Yachts & Others  PHILHARMONIC 2014-08-27 22:45:00 2014-08-27 19:45:00 2014-08-27 23:20:00 2014-08-27 20:20:00
Vessel Type: Yachts & Others  SAIL LA VIE V 2014-08-27 22:59:00 2014-08-27 19:59:00
Vessel Type: Yachts & Others  SAIL LA VIE V 2014-08-27 21:28:00 2014-08-27 18:28:00 2014-08-27 22:54:00 2014-08-27 19:54:00
Vessel Type: Yachts & Others  HELMS DEEP 2014-08-27 22:35:00 2014-08-27 19:35:00
Vessel Type: Yachts & Others  MAGICAL 2014-08-27 22:11:00 2014-08-27 19:11:00
Vessel Type: Yachts & Others  SEA SMOKE 2014-08-27 21:58:00 2014-08-27 18:58:00
Vessel Type: Yachts & Others  PHILHARMONIC 2014-08-26 19:33:00 2014-08-26 16:33:00 2014-08-27 21:56:00 2014-08-27 18:56:00
Vessel Type: Yachts & Others  MAGICAL 2014-08-27 19:20:00 2014-08-27 16:20:00 2014-08-27 21:56:00 2014-08-27 18:56:00

Expected Arrivals


Vessel's Name
Scheduled Arrival (UTC)
Scheduled Arrival (LT)
Estimated Arrival (UTC)
Estimated Arrival (LT)
Vessel Type: Cargo Vessels  ZEELANDIA 2014-08-27 12:00:00 2014-08-27 09:00:00 2014-08-27 17:10:00 2014-08-27 14:10:00
Vessel Type: Cargo Vessels  FUSION 2014-08-28 07:00:00 2014-08-28 04:00:00 2014-08-28 09:53:00 2014-08-28 06:53:00
Vessel Type: Cargo Vessels  ZIM VIRGINIA 2014-08-28 09:00:00 2014-08-28 06:00:00 2014-08-28 08:20:00 2014-08-28 05:20:00
Vessel Type: Tankers  NOR'EASTER 2014-08-28 09:00:00 2014-08-28 06:00:00 2014-08-28 12:29:00 2014-08-28 09:29:00
Vessel Type: Passenger Vessels  QUEEN MARY 2 2014-08-29 10:45:00 2014-08-29 07:45:00 2014-08-29 08:12:00 2014-08-29 05:12:00
Vessel Type: Cargo Vessels  MAERSK PALERMO 2014-08-30 06:00:00 2014-08-30 03:00:00 2014-08-30 23:54:00 2014-08-30 20:54:00
Vessel Type: Yachts & Others  TOLEDO 2014-09-02 08:30:00 2014-09-02 05:30:00 2014-09-02 22:49:00 2014-09-02 19:49:00

Wind Forecast


    
Time (UTC)
Speed
Direction
Temperature
2014-08-28 03:00:00 12 knots 238° 18°C
2014-08-28 06:00:00 10 knots 247° 17°C
2014-08-28 09:00:00 8 knots 240° 17°C
2014-08-28 12:00:00 8 knots 218° 18°C
2014-08-28 15:00:00 7 knots 220° 18°C
2014-08-28 18:00:00 5 knots 204° 19°C
2014-08-28 21:00:00 4 knots 233° 20°C
2014-08-29 00:00:00 8 knots 354° 18°C
2014-08-29 03:00:00 15 knots 17°C
2014-08-29 06:00:00 17 knots 349° 15°C
2014-08-29 09:00:00 19 knots 339° 14°C
2014-08-29 12:00:00 22 knots 338° 15°C
2014-08-29 15:00:00 23 knots 345° 17°C
2014-08-29 18:00:00 23 knots 351° 17°C
2014-08-29 21:00:00 20 knots 359° 16°C
2014-08-30 00:00:00 13 knots 356° 14°C
2014-08-30 03:00:00 10 knots 12°C